sensor_id;sensor_type;location;lat;lon;timestamp;P1;durP1;ratioP1;P2;durP2;ratioP2
5173;SDS011;2606;50.934;6.934;2023-02-17T00:01:59;8.93;;;5.60;;
5173;SDS011;2606;50.934;6.934;2023-02-17T00:04:26;8.83;;;4.87;;
5173;SDS011;2606;50.934;6.934;2023-02-17T00:06:53;10.80;;;5.80;;
5173;SDS011;2606;50.934;6.934;2023-02-17T00:09:19;6.43;;;4.53;;
5173;SDS011;2606;50.934;6.934;2023-02-17T00:11:45;9.23;;;5.30;;
5173;SDS011;2606;50.934;6.934;2023-02-17T00:14:11;10.10;;;4.70;;
5173;SDS011;2606;50.934;6.934;2023-02-17T00:16:37;8.20;;;4.80;;
5173;SDS011;2606;50.934;6.934;2023-02-17T00:19:03;7.23;;;4.37;;
5173;SDS011;2606;50.934;6.934;2023-02-17T00:21:47;7.73;;;5.00;;
5173;SDS011;2606;50.934;6.934;2023-02-17T00:24:17;7.57;;;4.43;;
5173;SDS011;2606;50.934;6.934;2023-02-17T00:26:42;9.23;;;4.37;;
5173;SDS011;2606;50.934;6.934;2023-02-17T00:29:08;5.93;;;3.83;;
5173;SDS011;2606;50.934;6.934;2023-02-17T00:31:34;7.97;;;4.60;;
5173;SDS011;2606;50.934;6.934;2023-02-17T00:33:59;7.20;;;4.27;;
5173;SDS011;2606;50.934;6.934;2023-02-17T00:36:25;4.73;;;3.87;;
5173;SDS011;2606;50.934;6.934;2023-02-17T00:38:52;6.87;;;4.57;;
5173;SDS011;2606;50.934;6.934;2023-02-17T00:41:19;6.40;;;3.63;;
5173;SDS011;2606;50.934;6.934;2023-02-17T00:43:45;9.30;;;4.67;;
5173;SDS011;2606;50.934;6.934;2023-02-17T00:46:11;6.50;;;4.20;;
5173;SDS011;2606;50.934;6.934;2023-02-17T00:48:37;11.50;;;4.83;;
5173;SDS011;2606;50.934;6.934;2023-02-17T00:51:03;5.03;;;3.60;;
5173;SDS011;2606;50.934;6.934;2023-02-17T00:53:29;6.40;;;4.10;;
5173;SDS011;2606;50.934;6.934;2023-02-17T00:55:54;6.10;;;4.07;;
5173;SDS011;2606;50.934;6.934;2023-02-17T00:58:20;6.30;;;3.73;;
5173;SDS011;2606;50.934;6.934;2023-02-17T01:00:46;7.20;;;4.37;;
5173;SDS011;2606;50.934;6.934;2023-02-17T01:03:11;5.70;;;4.23;;
5173;SDS011;2606;50.934;6.934;2023-02-17T01:05:41;5.60;;;4.60;;
5173;SDS011;2606;50.934;6.934;2023-02-17T01:08:07;9.27;;;4.60;;
5173;SDS011;2606;50.934;6.934;2023-02-17T01:10:35;5.70;;;4.17;;
5173;SDS011;2606;50.934;6.934;2023-02-17T01:13:02;8.00;;;3.83;;
5173;SDS011;2606;50.934;6.934;2023-02-17T01:15:28;8.03;;;3.67;;
5173;SDS011;2606;50.934;6.934;2023-02-17T01:17:53;6.13;;;3.70;;
5173;SDS011;2606;50.934;6.934;2023-02-17T01:20:19;8.80;;;4.17;;
5173;SDS011;2606;50.934;6.934;2023-02-17T01:22:45;6.00;;;4.10;;
5173;SDS011;2606;50.934;6.934;2023-02-17T01:25:10;6.40;;;4.13;;
5173;SDS011;2606;50.934;6.934;2023-02-17T01:27:36;8.43;;;3.70;;
5173;SDS011;2606;50.934;6.934;2023-02-17T01:30:01;6.77;;;4.40;;
5173;SDS011;2606;50.934;6.934;2023-02-17T01:32:28;6.50;;;4.33;;
5173;SDS011;2606;50.934;6.934;2023-02-17T01:34:54;6.07;;;3.73;;
5173;SDS011;2606;50.934;6.934;2023-02-17T01:37:19;6.43;;;3.70;;
5173;SDS011;2606;50.934;6.934;2023-02-17T01:39:45;5.90;;;4.20;;
5173;SDS011;2606;50.934;6.934;2023-02-17T01:42:14;7.90;;;3.90;;
5173;SDS011;2606;50.934;6.934;2023-02-17T01:47:41;5.80;;;3.70;;
5173;SDS011;2606;50.934;6.934;2023-02-17T01:50:07;5.73;;;3.63;;
5173;SDS011;2606;50.934;6.934;2023-02-17T01:52:34;5.13;;;3.80;;
5173;SDS011;2606;50.934;6.934;2023-02-17T01:55:02;6.93;;;3.90;;
5173;SDS011;2606;50.934;6.934;2023-02-17T01:57:32;5.70;;;4.00;;
5173;SDS011;2606;50.934;6.934;2023-02-17T02:00:01;5.83;;;4.00;;
5173;SDS011;2606;50.934;6.934;2023-02-17T02:02:27;5.77;;;4.10;;
5173;SDS011;2606;50.934;6.934;2023-02-17T02:04:54;4.37;;;3.30;;
5173;SDS011;2606;50.934;6.934;2023-02-17T02:07:31;6.17;;;3.97;;
5173;SDS011;2606;50.934;6.934;2023-02-17T02:10:00;5.33;;;3.63;;
5173;SDS011;2606;50.934;6.934;2023-02-17T02:12:26;5.83;;;3.83;;
5173;SDS011;2606;50.934;6.934;2023-02-17T02:14:56;8.43;;;4.20;;
5173;SDS011;2606;50.934;6.934;2023-02-17T02:20:31;7.10;;;4.50;;
5173;SDS011;2606;50.934;6.934;2023-02-17T02:35:00;8.30;;;5.10;;
5173;SDS011;2606;50.934;6.934;2023-02-17T02:37:46;11.40;;;4.90;;
5173;SDS011;2606;50.934;6.934;2023-02-17T02:40:17;6.13;;;5.00;;
5173;SDS011;2606;50.934;6.934;2023-02-17T02:42:47;7.37;;;5.13;;
5173;SDS011;2606;50.934;6.934;2023-02-17T02:45:15;9.50;;;5.80;;
5173;SDS011;2606;50.934;6.934;2023-02-17T02:47:43;6.00;;;4.47;;
5173;SDS011;2606;50.934;6.934;2023-02-17T02:50:15;9.20;;;5.93;;
5173;SDS011;2606;50.934;6.934;2023-02-17T02:52:50;7.70;;;5.00;;
5173;SDS011;2606;50.934;6.934;2023-02-17T02:58:17;8.17;;;5.17;;
5173;SDS011;2606;50.934;6.934;2023-02-17T03:00:58;7.57;;;5.27;;
5173;SDS011;2606;50.934;6.934;2023-02-17T03:03:33;9.43;;;5.30;;
5173;SDS011;2606;50.934;6.934;2023-02-17T03:06:17;8.37;;;4.70;;
5173;SDS011;2606;50.934;6.934;2023-02-17T03:09:03;9.13;;;4.90;;
5173;SDS011;2606;50.934;6.934;2023-02-17T03:11:37;10.93;;;5.90;;
5173;SDS011;2606;50.934;6.934;2023-02-17T03:14:09;5.60;;;4.30;;
5173;SDS011;2606;50.934;6.934;2023-02-17T03:16:37;7.37;;;4.77;;
5173;SDS011;2606;50.934;6.934;2023-02-17T03:19:04;5.17;;;4.27;;
5173;SDS011;2606;50.934;6.934;2023-02-17T03:21:38;7.03;;;4.47;;
5173;SDS011;2606;50.934;6.934;2023-02-17T03:24:12;7.60;;;4.80;;
5173;SDS011;2606;50.934;6.934;2023-02-17T03:26:38;6.37;;;4.13;;
5173;SDS011;2606;50.934;6.934;2023-02-17T03:29:04;8.03;;;4.73;;
5173;SDS011;2606;50.934;6.934;2023-02-17T03:31:29;9.43;;;5.27;;
5173;SDS011;2606;50.934;6.934;2023-02-17T03:33:55;11.33;;;4.83;;
5173;SDS011;2606;50.934;6.934;2023-02-17T03:36:21;6.10;;;4.43;;
5173;SDS011;2606;50.934;6.934;2023-02-17T03:38:47;7.73;;;4.87;;
5173;SDS011;2606;50.934;6.934;2023-02-17T03:41:12;6.13;;;4.00;;
5173;SDS011;2606;50.934;6.934;2023-02-17T03:43:38;6.90;;;4.97;;
5173;SDS011;2606;50.934;6.934;2023-02-17T03:46:03;6.90;;;4.23;;
5173;SDS011;2606;50.934;6.934;2023-02-17T03:48:33;5.60;;;4.00;;
5173;SDS011;2606;50.934;6.934;2023-02-17T03:51:08;7.63;;;4.27;;
5173;SDS011;2606;50.934;6.934;2023-02-17T03:53:41;6.00;;;4.30;;
5173;SDS011;2606;50.934;6.934;2023-02-17T03:56:07;6.63;;;4.40;;
5173;SDS011;2606;50.934;6.934;2023-02-17T03:58:33;6.93;;;4.60;;
5173;SDS011;2606;50.934;6.934;2023-02-17T04:00:59;5.80;;;4.40;;
5173;SDS011;2606;50.934;6.934;2023-02-17T04:03:25;6.13;;;3.97;;
5173;SDS011;2606;50.934;6.934;2023-02-17T04:05:51;6.80;;;4.67;;
5173;SDS011;2606;50.934;6.934;2023-02-17T04:08:18;5.30;;;4.20;;
5173;SDS011;2606;50.934;6.934;2023-02-17T04:10:44;4.97;;;3.90;;
5173;SDS011;2606;50.934;6.934;2023-02-17T04:13:10;7.40;;;4.53;;
5173;SDS011;2606;50.934;6.934;2023-02-17T04:15:35;7.17;;;4.23;;
5173;SDS011;2606;50.934;6.934;2023-02-17T04:18:01;7.70;;;4.83;;
5173;SDS011;2606;50.934;6.934;2023-02-17T04:20:26;11.63;;;4.67;;
5173;SDS011;2606;50.934;6.934;2023-02-17T04:22:52;6.20;;;4.17;;
5173;SDS011;2606;50.934;6.934;2023-02-17T04:25:18;4.53;;;3.47;;
5173;SDS011;2606;50.934;6.934;2023-02-17T04:27:43;7.27;;;4.70;;
5173;SDS011;2606;50.934;6.934;2023-02-17T04:30:09;7.80;;;4.87;;
5173;SDS011;2606;50.934;6.934;2023-02-17T04:32:35;8.37;;;3.50;;
5173;SDS011;2606;50.934;6.934;2023-02-17T04:35:00;5.30;;;3.80;;
5173;SDS011;2606;50.934;6.934;2023-02-17T04:37:26;7.93;;;4.63;;
5173;SDS011;2606;50.934;6.934;2023-02-17T04:39:51;6.50;;;4.10;;
5173;SDS011;2606;50.934;6.934;2023-02-17T04:42:17;5.07;;;3.60;;
5173;SDS011;2606;50.934;6.934;2023-02-17T04:44:42;5.90;;;4.10;;
5173;SDS011;2606;50.934;6.934;2023-02-17T04:47:08;7.07;;;4.50;;
5173;SDS011;2606;50.934;6.934;2023-02-17T04:49:34;5.60;;;4.17;;
5173;SDS011;2606;50.934;6.934;2023-02-17T04:51:59;6.87;;;4.27;;
5173;SDS011;2606;50.934;6.934;2023-02-17T04:54:25;6.63;;;3.60;;
5173;SDS011;2606;50.934;6.934;2023-02-17T04:56:50;6.63;;;4.17;;
5173;SDS011;2606;50.934;6.934;2023-02-17T04:59:16;8.13;;;4.40;;
5173;SDS011;2606;50.934;6.934;2023-02-17T05:01:41;5.90;;;3.90;;
5173;SDS011;2606;50.934;6.934;2023-02-17T05:04:07;7.53;;;4.30;;
5173;SDS011;2606;50.934;6.934;2023-02-17T05:06:32;5.47;;;3.70;;
5173;SDS011;2606;50.934;6.934;2023-02-17T05:08:58;6.23;;;3.83;;
5173;SDS011;2606;50.934;6.934;2023-02-17T05:11:23;5.50;;;3.90;;
5173;SDS011;2606;50.934;6.934;2023-02-17T05:13:49;6.07;;;4.00;;
5173;SDS011;2606;50.934;6.934;2023-02-17T05:16:15;6.23;;;4.20;;
5173;SDS011;2606;50.934;6.934;2023-02-17T05:18:40;5.10;;;3.40;;
5173;SDS011;2606;50.934;6.934;2023-02-17T05:21:06;5.13;;;3.60;;
5173;SDS011;2606;50.934;6.934;2023-02-17T05:23:31;7.20;;;4.37;;
5173;SDS011;2606;50.934;6.934;2023-02-17T05:25:57;4.47;;;3.50;;
5173;SDS011;2606;50.934;6.934;2023-02-17T05:28:22;6.57;;;4.23;;
5173;SDS011;2606;50.934;6.934;2023-02-17T05:30:48;7.30;;;3.50;;
5173;SDS011;2606;50.934;6.934;2023-02-17T05:33:14;5.30;;;3.90;;
5173;SDS011;2606;50.934;6.934;2023-02-17T05:35:40;5.20;;;3.70;;
5173;SDS011;2606;50.934;6.934;2023-02-17T05:38:05;5.27;;;3.43;;
5173;SDS011;2606;50.934;6.934;2023-02-17T05:40:31;5.20;;;3.40;;
5173;SDS011;2606;50.934;6.934;2023-02-17T05:42:57;6.27;;;3.87;;
5173;SDS011;2606;50.934;6.934;2023-02-17T05:45:22;5.17;;;3.57;;
5173;SDS011;2606;50.934;6.934;2023-02-17T05:47:48;6.77;;;3.70;;
5173;SDS011;2606;50.934;6.934;2023-02-17T05:50:13;5.23;;;3.60;;
5173;SDS011;2606;50.934;6.934;2023-02-17T05:52:39;4.27;;;3.10;;
5173;SDS011;2606;50.934;6.934;2023-02-17T05:55:05;3.87;;;3.03;;
5173;SDS011;2606;50.934;6.934;2023-02-17T05:57:30;5.60;;;3.30;;
5173;SDS011;2606;50.934;6.934;2023-02-17T05:59:56;5.27;;;3.20;;
5173;SDS011;2606;50.934;6.934;2023-02-17T06:02:22;4.30;;;3.33;;
5173;SDS011;2606;50.934;6.934;2023-02-17T06:04:47;4.23;;;3.20;;
5173;SDS011;2606;50.934;6.934;2023-02-17T06:07:13;5.30;;;3.37;;
5173;SDS011;2606;50.934;6.934;2023-02-17T06:09:38;4.77;;;3.30;;
5173;SDS011;2606;50.934;6.934;2023-02-17T06:12:04;6.43;;;4.00;;
5173;SDS011;2606;50.934;6.934;2023-02-17T06:14:30;4.10;;;3.30;;
5173;SDS011;2606;50.934;6.934;2023-02-17T06:16:55;4.90;;;3.07;;
5173;SDS011;2606;50.934;6.934;2023-02-17T06:19:21;4.93;;;3.77;;
5173;SDS011;2606;50.934;6.934;2023-02-17T06:21:47;3.53;;;3.07;;
5173;SDS011;2606;50.934;6.934;2023-02-17T06:24:13;4.70;;;3.37;;
5173;SDS011;2606;50.934;6.934;2023-02-17T06:26:39;5.90;;;3.80;;
5173;SDS011;2606;50.934;6.934;2023-02-17T06:29:05;5.83;;;3.27;;
5173;SDS011;2606;50.934;6.934;2023-02-17T06:31:30;9.33;;;3.40;;
5173;SDS011;2606;50.934;6.934;2023-02-17T06:33:56;5.80;;;3.80;;
5173;SDS011;2606;50.934;6.934;2023-02-17T06:36:22;5.27;;;4.17;;
5173;SDS011;2606;50.934;6.934;2023-02-17T06:38:47;6.33;;;3.50;;
5173;SDS011;2606;50.934;6.934;2023-02-17T06:41:13;5.30;;;3.40;;
5173;SDS011;2606;50.934;6.934;2023-02-17T06:43:39;3.57;;;3.10;;
5173;SDS011;2606;50.934;6.934;2023-02-17T06:46:05;5.73;;;4.00;;
5173;SDS011;2606;50.934;6.934;2023-02-17T06:48:30;7.20;;;3.30;;
5173;SDS011;2606;50.934;6.934;2023-02-17T06:50:57;7.90;;;4.00;;
5173;SDS011;2606;50.934;6.934;2023-02-17T06:53:24;4.50;;;3.50;;
5173;SDS011;2606;50.934;6.934;2023-02-17T06:55:50;3.87;;;2.90;;
5173;SDS011;2606;50.934;6.934;2023-02-17T06:58:15;6.20;;;3.23;;
5173;SDS011;2606;50.934;6.934;2023-02-17T07:00:41;5.10;;;2.70;;
5173;SDS011;2606;50.934;6.934;2023-02-17T07:03:06;5.73;;;2.87;;
5173;SDS011;2606;50.934;6.934;2023-02-17T07:05:35;4.97;;;3.67;;
5173;SDS011;2606;50.934;6.934;2023-02-17T07:08:01;6.50;;;3.13;;
5173;SDS011;2606;50.934;6.934;2023-02-17T07:10:27;4.57;;;3.60;;
5173;SDS011;2606;50.934;6.934;2023-02-17T07:12:53;7.43;;;3.20;;
5173;SDS011;2606;50.934;6.934;2023-02-17T07:15:19;27.13;;;12.47;;
5173;SDS011;2606;50.934;6.934;2023-02-17T07:17:45;9.50;;;5.50;;
5173;SDS011;2606;50.934;6.934;2023-02-17T07:20:10;11.10;;;6.40;;
5173;SDS011;2606;50.934;6.934;2023-02-17T07:22:36;5.00;;;3.57;;
5173;SDS011;2606;50.934;6.934;2023-02-17T07:25:03;6.77;;;4.27;;
5173;SDS011;2606;50.934;6.934;2023-02-17T07:27:29;9.00;;;3.97;;
5173;SDS011;2606;50.934;6.934;2023-02-17T07:29:55;14.73;;;7.50;;
5173;SDS011;2606;50.934;6.934;2023-02-17T07:32:21;6.70;;;3.63;;
5173;SDS011;2606;50.934;6.934;2023-02-17T07:34:47;14.47;;;7.13;;
5173;SDS011;2606;50.934;6.934;2023-02-17T07:37:12;5.10;;;3.30;;
5173;SDS011;2606;50.934;6.934;2023-02-17T07:39:38;7.00;;;3.13;;
5173;SDS011;2606;50.934;6.934;2023-02-17T07:42:03;18.73;;;9.20;;
5173;SDS011;2606;50.934;6.934;2023-02-17T07:44:30;9.00;;;5.07;;
5173;SDS011;2606;50.934;6.934;2023-02-17T07:46:56;8.87;;;3.50;;
5173;SDS011;2606;50.934;6.934;2023-02-17T07:49:22;3.60;;;2.90;;
5173;SDS011;2606;50.934;6.934;2023-02-17T07:51:47;4.17;;;2.80;;
5173;SDS011;2606;50.934;6.934;2023-02-17T07:54:13;6.17;;;4.27;;
5173;SDS011;2606;50.934;6.934;2023-02-17T07:56:39;4.93;;;2.63;;
5173;SDS011;2606;50.934;6.934;2023-02-17T07:59:11;4.80;;;3.17;;
5173;SDS011;2606;50.934;6.934;2023-02-17T08:01:37;3.40;;;2.93;;
5173;SDS011;2606;50.934;6.934;2023-02-17T08:04:03;6.50;;;3.57;;
5173;SDS011;2606;50.934;6.934;2023-02-17T08:06:30;7.67;;;3.70;;
5173;SDS011;2606;50.934;6.934;2023-02-17T08:08:56;7.47;;;3.70;;
5173;SDS011;2606;50.934;6.934;2023-02-17T08:11:40;5.90;;;3.40;;
5173;SDS011;2606;50.934;6.934;2023-02-17T08:14:26;5.17;;;2.70;;
5173;SDS011;2606;50.934;6.934;2023-02-17T08:16:53;5.17;;;2.80;;
5173;SDS011;2606;50.934;6.934;2023-02-17T08:19:19;4.90;;;3.27;;
5173;SDS011;2606;50.934;6.934;2023-02-17T08:21:45;5.40;;;3.47;;
5173;SDS011;2606;50.934;6.934;2023-02-17T08:24:11;6.27;;;3.30;;
5173;SDS011;2606;50.934;6.934;2023-02-17T08:26:37;5.27;;;2.90;;
5173;SDS011;2606;50.934;6.934;2023-02-17T08:29:03;6.40;;;3.10;;
5173;SDS011;2606;50.934;6.934;2023-02-17T08:31:33;10.13;;;3.03;;
5173;SDS011;2606;50.934;6.934;2023-02-17T08:34:04;4.73;;;3.40;;
5173;SDS011;2606;50.934;6.934;2023-02-17T08:36:31;10.57;;;4.60;;
5173;SDS011;2606;50.934;6.934;2023-02-17T08:38:57;6.10;;;2.90;;
5173;SDS011;2606;50.934;6.934;2023-02-17T08:41:24;5.90;;;2.80;;
5173;SDS011;2606;50.934;6.934;2023-02-17T08:43:55;3.50;;;2.90;;
5173;SDS011;2606;50.934;6.934;2023-02-17T08:46:21;2.93;;;2.63;;
5173;SDS011;2606;50.934;6.934;2023-02-17T08:48:47;6.53;;;2.57;;
5173;SDS011;2606;50.934;6.934;2023-02-17T08:51:14;6.40;;;3.17;;
5173;SDS011;2606;50.934;6.934;2023-02-17T08:53:42;3.53;;;2.70;;
5173;SDS011;2606;50.934;6.934;2023-02-17T08:56:09;7.10;;;3.60;;
5173;SDS011;2606;50.934;6.934;2023-02-17T08:58:35;17.23;;;7.43;;
5173;SDS011;2606;50.934;6.934;2023-02-17T09:01:01;9.73;;;5.60;;
5173;SDS011;2606;50.934;6.934;2023-02-17T09:03:27;11.03;;;5.57;;
5173;SDS011;2606;50.934;6.934;2023-02-17T09:05:53;4.60;;;3.33;;
5173;SDS011;2606;50.934;6.934;2023-02-17T09:08:22;5.10;;;3.43;;
5173;SDS011;2606;50.934;6.934;2023-02-17T09:10:48;8.17;;;3.60;;
5173;SDS011;2606;50.934;6.934;2023-02-17T09:13:14;6.60;;;3.80;;
5173;SDS011;2606;50.934;6.934;2023-02-17T09:15:40;6.60;;;4.00;;
5173;SDS011;2606;50.934;6.934;2023-02-17T09:18:06;5.80;;;3.47;;
5173;SDS011;2606;50.934;6.934;2023-02-17T09:20:31;5.47;;;2.90;;
5173;SDS011;2606;50.934;6.934;2023-02-17T09:22:57;4.37;;;2.90;;
5173;SDS011;2606;50.934;6.934;2023-02-17T09:25:23;2.93;;;2.03;;
5173;SDS011;2606;50.934;6.934;2023-02-17T09:27:48;4.32;;;2.70;;
5173;SDS011;2606;50.934;6.934;2023-02-17T09:30:14;5.20;;;3.10;;
5173;SDS011;2606;50.934;6.934;2023-02-17T09:32:40;5.87;;;3.20;;
5173;SDS011;2606;50.934;6.934;2023-02-17T09:35:07;2.60;;;2.33;;
5173;SDS011;2606;50.934;6.934;2023-02-17T09:37:35;6.67;;;2.73;;
5173;SDS011;2606;50.934;6.934;2023-02-17T09:40:00;5.70;;;2.60;;
5173;SDS011;2606;50.934;6.934;2023-02-17T09:42:26;4.57;;;2.53;;
5173;SDS011;2606;50.934;6.934;2023-02-17T09:44:57;5.00;;;2.50;;
5173;SDS011;2606;50.934;6.934;2023-02-17T09:47:30;4.20;;;2.17;;
5173;SDS011;2606;50.934;6.934;2023-02-17T09:50:08;3.57;;;2.27;;
5173;SDS011;2606;50.934;6.934;2023-02-17T09:52:40;3.10;;;2.00;;
5173;SDS011;2606;50.934;6.934;2023-02-17T09:55:19;3.50;;;2.20;;
5173;SDS011;2606;50.934;6.934;2023-02-17T09:57:58;3.97;;;2.10;;
5173;SDS011;2606;50.934;6.934;2023-02-17T10:00:44;6.33;;;2.27;;
5173;SDS011;2606;50.934;6.934;2023-02-17T10:03:24;3.30;;;1.80;;
5173;SDS011;2606;50.934;6.934;2023-02-17T10:06:09;2.30;;;2.00;;
5173;SDS011;2606;50.934;6.934;2023-02-17T10:09:10;3.77;;;1.97;;
5173;SDS011;2606;50.934;6.934;2023-02-17T10:11:52;2.70;;;1.97;;
5173;SDS011;2606;50.934;6.934;2023-02-17T10:14:28;2.20;;;1.90;;
5173;SDS011;2606;50.934;6.934;2023-02-17T10:17:09;5.20;;;1.87;;
5173;SDS011;2606;50.934;6.934;2023-02-17T10:22:20;5.70;;;2.97;;
5173;SDS011;2606;50.934;6.934;2023-02-17T10:24:47;4.60;;;2.60;;
5173;SDS011;2606;50.934;6.934;2023-02-17T10:30:22;1.20;;;1.10;;
5173;SDS011;2606;50.934;6.934;2023-02-17T10:33:11;2.97;;;1.60;;
5173;SDS011;2606;50.934;6.934;2023-02-17T10:35:48;1.70;;;1.27;;
5173;SDS011;2606;50.934;6.934;2023-02-17T10:40:51;1.73;;;1.50;;
5173;SDS011;2606;50.934;6.934;2023-02-17T10:43:24;6.33;;;1.63;;
5173;SDS011;2606;50.934;6.934;2023-02-17T10:45:54;5.17;;;1.63;;
5173;SDS011;2606;50.934;6.934;2023-02-17T10:48:21;1.83;;;1.37;;
5173;SDS011;2606;50.934;6.934;2023-02-17T10:50:52;3.00;;;1.40;;
5173;SDS011;2606;50.934;6.934;2023-02-17T10:53:20;2.77;;;1.90;;
5173;SDS011;2606;50.934;6.934;2023-02-17T10:58:33;4.00;;;1.87;;
5173;SDS011;2606;50.934;6.934;2023-02-17T11:01:03;3.93;;;1.93;;
5173;SDS011;2606;50.934;6.934;2023-02-17T11:03:30;3.53;;;1.80;;
5173;SDS011;2606;50.934;6.934;2023-02-17T11:05:58;2.40;;;1.20;;
5173;SDS011;2606;50.934;6.934;2023-02-17T11:08:30;2.60;;;1.80;;
5173;SDS011;2606;50.934;6.934;2023-02-17T11:11:27;2.63;;;1.50;;
5173;SDS011;2606;50.934;6.934;2023-02-17T11:16:43;2.77;;;1.70;;
5173;SDS011;2606;50.934;6.934;2023-02-17T11:19:18;3.93;;;1.20;;
5173;SDS011;2606;50.934;6.934;2023-02-17T11:21:49;1.63;;;1.40;;
5173;SDS011;2606;50.934;6.934;2023-02-17T11:24:15;5.10;;;1.43;;
5173;SDS011;2606;50.934;6.934;2023-02-17T11:26:41;1.77;;;1.50;;
5173;SDS011;2606;50.934;6.934;2023-02-17T11:29:14;1.50;;;1.40;;
5173;SDS011;2606;50.934;6.934;2023-02-17T11:31:52;2.20;;;1.37;;
5173;SDS011;2606;50.934;6.934;2023-02-17T11:34:24;3.70;;;1.50;;
5173;SDS011;2606;50.934;6.934;2023-02-17T11:39:37;3.97;;;1.40;;
5173;SDS011;2606;50.934;6.934;2023-02-17T11:42:19;1.77;;;1.30;;
5173;SDS011;2606;50.934;6.934;2023-02-17T11:44:50;5.40;;;1.30;;
5173;SDS011;2606;50.934;6.934;2023-02-17T12:00:35;2.00;;;1.30;;
5173;SDS011;2606;50.934;6.934;2023-02-17T12:04:14;2.47;;;1.57;;
5173;SDS011;2606;50.934;6.934;2023-02-17T12:06:21;12.50;;;1.40;;
5173;SDS011;2606;50.934;6.934;2023-02-17T12:09:04;1.63;;;1.20;;
5173;SDS011;2606;50.934;6.934;2023-02-17T12:11:50;3.70;;;1.43;;
5173;SDS011;2606;50.934;6.934;2023-02-17T12:25:29;3.40;;;1.33;;
5173;SDS011;2606;50.934;6.934;2023-02-17T12:30:42;2.40;;;1.13;;
5173;SDS011;2606;50.934;6.934;2023-02-17T12:36:02;3.60;;;1.60;;
5173;SDS011;2606;50.934;6.934;2023-02-17T12:38:32;1.43;;;1.00;;
5173;SDS011;2606;50.934;6.934;2023-02-17T12:46:21;2.70;;;1.40;;
5173;SDS011;2606;50.934;6.934;2023-02-17T12:48:53;1.67;;;1.10;;
5173;SDS011;2606;50.934;6.934;2023-02-17T12:51:21;1.87;;;1.30;;
5173;SDS011;2606;50.934;6.934;2023-02-17T12:53:54;7.63;;;2.20;;
5173;SDS011;2606;50.934;6.934;2023-02-17T12:57:11;1.73;;;1.33;;
5173;SDS011;2606;50.934;6.934;2023-02-17T13:02:04;5.33;;;1.40;;
5173;SDS011;2606;50.934;6.934;2023-02-17T13:04:41;5.63;;;1.47;;
5173;SDS011;2606;50.934;6.934;2023-02-17T13:07:19;4.30;;;1.27;;
5173;SDS011;2606;50.934;6.934;2023-02-17T13:09:56;4.80;;;1.20;;
5173;SDS011;2606;50.934;6.934;2023-02-17T13:14:55;3.33;;;1.40;;
5173;SDS011;2606;50.934;6.934;2023-02-17T13:17:30;2.40;;;1.40;;
5173;SDS011;2606;50.934;6.934;2023-02-17T13:20:05;6.10;;;1.30;;
5173;SDS011;2606;50.934;6.934;2023-02-17T13:22:31;11.00;;;1.90;;
5173;SDS011;2606;50.934;6.934;2023-02-17T13:24:57;5.43;;;1.53;;
5173;SDS011;2606;50.934;6.934;2023-02-17T13:29:58;7.93;;;2.20;;
5173;SDS011;2606;50.934;6.934;2023-02-17T13:32:43;13.70;;;2.23;;
5173;SDS011;2606;50.934;6.934;2023-02-17T13:37:39;6.27;;;2.17;;
5173;SDS011;2606;50.934;6.934;2023-02-17T13:42:44;8.47;;;2.57;;
5173;SDS011;2606;50.934;6.934;2023-02-17T13:47:52;3.10;;;1.50;;
5173;SDS011;2606;50.934;6.934;2023-02-17T13:53:00;7.50;;;1.83;;
5173;SDS011;2606;50.934;6.934;2023-02-17T13:55:27;6.03;;;1.97;;
5173;SDS011;2606;50.934;6.934;2023-02-17T13:57:54;7.23;;;1.80;;
5173;SDS011;2606;50.934;6.934;2023-02-17T14:00:28;8.70;;;2.10;;
5173;SDS011;2606;50.934;6.934;2023-02-17T14:03:01;12.17;;;2.17;;
5173;SDS011;2606;50.934;6.934;2023-02-17T14:05:39;16.43;;;1.70;;
5173;SDS011;2606;50.934;6.934;2023-02-17T14:08:12;5.40;;;1.30;;
5173;SDS011;2606;50.934;6.934;2023-02-17T14:10:42;9.53;;;2.30;;
5173;SDS011;2606;50.934;6.934;2023-02-17T14:13:11;12.97;;;2.47;;
5173;SDS011;2606;50.934;6.934;2023-02-17T14:15:37;6.63;;;1.70;;
5173;SDS011;2606;50.934;6.934;2023-02-17T14:18:34;2.07;;;1.50;;
5173;SDS011;2606;50.934;6.934;2023-02-17T14:23:40;3.93;;;1.90;;
5173;SDS011;2606;50.934;6.934;2023-02-17T14:26:14;3.20;;;2.17;;
5173;SDS011;2606;50.934;6.934;2023-02-17T14:29:10;4.67;;;1.87;;
5173;SDS011;2606;50.934;6.934;2023-02-17T14:31:39;8.70;;;2.33;;
5173;SDS011;2606;50.934;6.934;2023-02-17T14:34:05;5.40;;;1.60;;
5173;SDS011;2606;50.934;6.934;2023-02-17T14:36:37;4.00;;;1.87;;
5173;SDS011;2606;50.934;6.934;2023-02-17T14:39:04;7.10;;;2.10;;
5173;SDS011;2606;50.934;6.934;2023-02-17T14:41:31;10.03;;;1.80;;
5173;SDS011;2606;50.934;6.934;2023-02-17T14:43:57;3.30;;;1.73;;
5173;SDS011;2606;50.934;6.934;2023-02-17T14:46:24;7.77;;;1.80;;
5173;SDS011;2606;50.934;6.934;2023-02-17T14:48:52;4.73;;;2.33;;
5173;SDS011;2606;50.934;6.934;2023-02-17T14:51:19;4.70;;;1.90;;
5173;SDS011;2606;50.934;6.934;2023-02-17T14:53:47;5.10;;;2.10;;
5173;SDS011;2606;50.934;6.934;2023-02-17T14:58:59;3.70;;;1.73;;
5173;SDS011;2606;50.934;6.934;2023-02-17T15:01:24;8.83;;;2.33;;
5173;SDS011;2606;50.934;6.934;2023-02-17T15:03:51;3.80;;;1.87;;
5173;SDS011;2606;50.934;6.934;2023-02-17T15:06:18;9.43;;;2.60;;
5173;SDS011;2606;50.934;6.934;2023-02-17T15:08:46;6.07;;;1.40;;
5173;SDS011;2606;50.934;6.934;2023-02-17T15:11:20;4.50;;;1.40;;
5173;SDS011;2606;50.934;6.934;2023-02-17T15:13:53;3.00;;;1.50;;
5173;SDS011;2606;50.934;6.934;2023-02-17T15:16:18;2.83;;;1.60;;
5173;SDS011;2606;50.934;6.934;2023-02-17T15:18:44;3.73;;;1.77;;
5173;SDS011;2606;50.934;6.934;2023-02-17T15:21:20;1.93;;;1.43;;
5173;SDS011;2606;50.934;6.934;2023-02-17T15:23:50;10.03;;;2.17;;
5173;SDS011;2606;50.934;6.934;2023-02-17T15:26:15;6.83;;;1.60;;
5173;SDS011;2606;50.934;6.934;2023-02-17T15:28:41;8.70;;;2.17;;
5173;SDS011;2606;50.934;6.934;2023-02-17T15:31:08;4.70;;;1.50;;
5173;SDS011;2606;50.934;6.934;2023-02-17T15:33:36;2.27;;;1.83;;
5173;SDS011;2606;50.934;6.934;2023-02-17T15:36:02;3.90;;;1.53;;
5173;SDS011;2606;50.934;6.934;2023-02-17T15:38:28;4.83;;;2.30;;
5173;SDS011;2606;50.934;6.934;2023-02-17T15:40:54;4.07;;;2.57;;
5173;SDS011;2606;50.934;6.934;2023-02-17T15:43:22;2.70;;;1.70;;
5173;SDS011;2606;50.934;6.934;2023-02-17T15:45:57;4.13;;;1.73;;
5173;SDS011;2606;50.934;6.934;2023-02-17T15:48:23;2.30;;;1.90;;
5173;SDS011;2606;50.934;6.934;2023-02-17T15:50:50;3.50;;;1.80;;
5173;SDS011;2606;50.934;6.934;2023-02-17T15:53:16;1.50;;;1.40;;
5173;SDS011;2606;50.934;6.934;2023-02-17T15:55:42;2.83;;;1.50;;
5173;SDS011;2606;50.934;6.934;2023-02-17T15:58:18;4.00;;;1.80;;
5173;SDS011;2606;50.934;6.934;2023-02-17T16:00:45;5.27;;;2.03;;
5173;SDS011;2606;50.934;6.934;2023-02-17T16:03:12;3.13;;;1.80;;
5173;SDS011;2606;50.934;6.934;2023-02-17T16:05:38;5.10;;;1.30;;
5173;SDS011;2606;50.934;6.934;2023-02-17T16:08:04;8.33;;;1.20;;
5173;SDS011;2606;50.934;6.934;2023-02-17T16:10:30;1.73;;;1.40;;
5173;SDS011;2606;50.934;6.934;2023-02-17T16:12:57;1.70;;;1.33;;
5173;SDS011;2606;50.934;6.934;2023-02-17T16:15:25;2.73;;;1.37;;
5173;SDS011;2606;50.934;6.934;2023-02-17T16:17:52;2.80;;;1.50;;
5173;SDS011;2606;50.934;6.934;2023-02-17T16:20:27;2.93;;;1.27;;
5173;SDS011;2606;50.934;6.934;2023-02-17T16:22:56;2.60;;;1.70;;
5173;SDS011;2606;50.934;6.934;2023-02-17T16:25:23;7.80;;;1.83;;
5173;SDS011;2606;50.934;6.934;2023-02-17T16:27:50;6.50;;;1.70;;
5173;SDS011;2606;50.934;6.934;2023-02-17T16:30:21;3.80;;;2.23;;
5173;SDS011;2606;50.934;6.934;2023-02-17T16:32:54;3.00;;;1.83;;
5173;SDS011;2606;50.934;6.934;2023-02-17T16:35:21;2.43;;;1.90;;
5173;SDS011;2606;50.934;6.934;2023-02-17T16:37:53;2.03;;;1.50;;
5173;SDS011;2606;50.934;6.934;2023-02-17T16:40:21;2.30;;;1.53;;
5173;SDS011;2606;50.934;6.934;2023-02-17T16:42:49;6.53;;;1.63;;
5173;SDS011;2606;50.934;6.934;2023-02-17T16:45:15;2.27;;;1.73;;
5173;SDS011;2606;50.934;6.934;2023-02-17T16:47:46;2.17;;;1.67;;
5173;SDS011;2606;50.934;6.934;2023-02-17T16:50:20;3.03;;;2.63;;
5173;SDS011;2606;50.934;6.934;2023-02-17T16:52:49;2.40;;;1.83;;
5173;SDS011;2606;50.934;6.934;2023-02-17T16:55:17;5.13;;;2.63;;
5173;SDS011;2606;50.934;6.934;2023-02-17T16:57:45;6.73;;;3.17;;
5173;SDS011;2606;50.934;6.934;2023-02-17T17:00:12;2.40;;;1.73;;
5173;SDS011;2606;50.934;6.934;2023-02-17T17:02:40;5.57;;;3.80;;